createdAt,value
2019-05-25T00:00:12.059Z,11.11
2019-05-25T00:01:12.036Z,11.04
2019-05-25T00:02:11.945Z,10.97
2019-05-25T00:03:12.137Z,10.92
2019-05-25T00:04:12.278Z,10.86
2019-05-25T00:05:12.009Z,10.78
2019-05-25T00:06:11.976Z,10.67
2019-05-25T00:07:12.009Z,10.57
2019-05-25T00:08:12.074Z,10.51
2019-05-25T00:09:12.006Z,10.46
2019-05-25T00:10:11.863Z,10.38
2019-05-25T00:11:11.932Z,10.31
2019-05-25T00:12:11.825Z,10.25
2019-05-25T00:13:11.792Z,10.17
2019-05-25T00:14:11.802Z,10.13
2019-05-25T00:15:11.771Z,10.09
2019-05-25T00:16:11.761Z,10.02
2019-05-25T00:17:11.752Z,9.98
2019-05-25T00:18:11.742Z,9.98
2019-05-25T00:19:11.751Z,9.94
2019-05-25T00:20:11.711Z,9.94
2019-05-25T00:21:13.868Z,9.91
2019-05-25T00:22:11.701Z,9.86
2019-05-25T00:23:11.683Z,9.84
2019-05-25T00:24:12.894Z,9.83
2019-05-25T00:25:11.653Z,9.77
2019-05-25T00:26:11.662Z,9.77
2019-05-25T00:27:11.643Z,9.69
2019-05-25T00:28:11.676Z,9.66
2019-05-25T00:29:11.641Z,9.65
2019-05-25T00:30:11.694Z,9.64
2019-05-25T00:31:13.261Z,9.61
2019-05-25T00:32:11.621Z,9.61
2019-05-25T00:33:11.730Z,9.61
2019-05-25T00:34:11.952Z,9.62
2019-05-25T00:35:11.591Z,9.59
2019-05-25T00:36:11.664Z,9.58
2019-05-25T00:37:12.490Z,9.54
2019-05-25T00:38:12.486Z,9.50
2019-05-25T00:39:11.665Z,9.47
2019-05-25T00:40:11.653Z,9.46
2019-05-25T00:41:11.527Z,9.40
2019-05-25T00:42:11.490Z,9.39
2019-05-25T00:43:11.491Z,9.37
2019-05-25T00:44:11.463Z,9.36
2019-05-25T00:45:11.454Z,9.32
2019-05-25T00:46:11.718Z,9.31
2019-05-25T00:47:11.460Z,9.29
2019-05-25T00:48:11.809Z,9.29
2019-05-25T00:49:11.878Z,9.31
2019-05-25T00:50:11.965Z,9.31
2019-05-25T00:51:11.578Z,9.29
2019-05-25T00:52:11.428Z,9.31
2019-05-25T00:53:11.445Z,9.26
2019-05-25T00:54:25.429Z,9.26
2019-05-25T00:55:12.450Z,9.26
2019-05-25T00:56:11.412Z,9.26
2019-05-25T00:57:11.363Z,9.25
2019-05-25T00:58:11.382Z,9.25
2019-05-25T00:59:11.386Z,9.23
2019-05-25T01:00:11.452Z,9.23
2019-05-25T01:01:11.376Z,9.22
2019-05-25T01:02:11.295Z,9.23
2019-05-25T01:03:11.301Z,9.21
2019-05-25T01:04:11.265Z,9.19
2019-05-25T01:05:11.257Z,9.19
2019-05-25T01:06:11.239Z,9.16
2019-05-25T01:07:11.239Z,9.10
2019-05-25T01:08:11.229Z,9.04
2019-05-25T01:09:11.208Z,8.99
2019-05-25T01:10:11.202Z,8.99
2019-05-25T01:11:11.188Z,8.97
2019-05-25T01:12:11.195Z,8.97
2019-05-25T01:13:11.239Z,8.94
2019-05-25T01:14:11.159Z,8.91
2019-05-25T01:15:11.130Z,8.91
2019-05-25T01:16:11.122Z,8.87
2019-05-25T01:17:11.113Z,8.84
2019-05-25T01:18:11.133Z,8.81
2019-05-25T01:19:11.141Z,8.81
2019-05-25T01:20:11.088Z,8.82
2019-05-25T01:21:11.317Z,8.84
2019-05-25T01:22:11.055Z,8.81
2019-05-25T01:23:11.089Z,8.81
2019-05-25T01:24:11.031Z,8.78
2019-05-25T01:25:11.071Z,8.71
2019-05-25T01:26:11.061Z,8.69
2019-05-25T01:27:11.029Z,8.67
2019-05-25T01:28:11.065Z,8.67
2019-05-25T01:29:11.020Z,8.66
2019-05-25T01:30:11.001Z,8.60
2019-05-25T01:31:10.986Z,8.58
2019-05-25T01:32:10.956Z,8.56
2019-05-25T01:33:10.988Z,8.51
2019-05-25T01:34:10.979Z,8.48
2019-05-25T01:35:10.940Z,8.44
2019-05-25T01:36:10.919Z,8.42
2019-05-25T01:37:10.904Z,8.42
2019-05-25T01:38:10.872Z,8.42
2019-05-25T01:39:10.867Z,8.44
2019-05-25T01:40:10.899Z,8.42
2019-05-25T01:41:10.850Z,8.38
2019-05-25T01:42:10.856Z,8.37
2019-05-25T01:43:10.849Z,8.37
2019-05-25T01:44:10.849Z,8.34
2019-05-25T01:45:10.818Z,8.31
2019-05-25T01:46:10.817Z,8.26
2019-05-25T01:47:10.785Z,8.20
2019-05-25T01:48:10.765Z,8.16
2019-05-25T01:49:10.770Z,8.10
2019-05-25T01:50:10.797Z,8.06
2019-05-25T01:51:10.766Z,8.03
2019-05-25T01:52:10.727Z,8.03
2019-05-25T01:53:11.697Z,8.03
2019-05-25T01:54:19.692Z,8.05
2019-05-25T01:55:11.649Z,8.05
2019-05-25T01:56:10.718Z,8.06
2019-05-25T01:57:10.841Z,8.03
2019-05-25T01:58:10.684Z,8.00
2019-05-25T01:59:11.299Z,7.98
2019-05-25T02:00:10.952Z,7.98
2019-05-25T02:01:10.781Z,7.94
2019-05-25T02:02:10.619Z,7.90
2019-05-25T02:03:10.608Z,7.82
2019-05-25T02:04:10.688Z,7.82
2019-05-25T02:05:11.280Z,7.82
2019-05-25T02:06:10.619Z,7.83
2019-05-25T02:07:10.771Z,7.82
2019-05-25T02:08:10.578Z,7.83
2019-05-25T02:09:10.580Z,7.83
2019-05-25T02:10:10.576Z,7.79
2019-05-25T02:11:10.639Z,7.77
2019-05-25T02:12:10.556Z,7.72
2019-05-25T02:13:12.808Z,7.75
2019-05-25T02:14:10.854Z,7.72
2019-05-25T02:15:10.820Z,7.75
2019-05-25T02:16:11.420Z,7.73
2019-05-25T02:17:10.831Z,7.70
2019-05-25T02:18:10.478Z,7.72
2019-05-25T02:19:10.488Z,7.70
2019-05-25T02:20:10.535Z,7.73
2019-05-25T02:21:10.975Z,7.75
2019-05-25T02:22:10.713Z,7.70
2019-05-25T02:23:10.526Z,7.66
2019-05-25T02:24:10.436Z,7.60
2019-05-25T02:25:17.742Z,7.57
2019-05-25T02:26:12.142Z,7.53
2019-05-25T02:27:10.541Z,7.50
2019-05-25T02:28:10.546Z,7.48
2019-05-25T02:29:10.629Z,7.50
2019-05-25T02:30:11.151Z,7.47
2019-05-25T02:31:10.487Z,7.45
2019-05-25T02:32:10.314Z,7.43
2019-05-25T02:33:10.302Z,7.42
2019-05-25T02:34:10.291Z,7.38
2019-05-25T02:35:10.289Z,7.38
2019-05-25T02:36:10.251Z,7.38
2019-05-25T02:37:10.272Z,7.40
2019-05-25T02:38:10.234Z,7.42
2019-05-25T02:39:10.250Z,7.43
2019-05-25T02:40:10.211Z,7.43
2019-05-25T02:41:10.373Z,7.42
2019-05-25T02:42:10.201Z,7.42
2019-05-25T02:43:10.183Z,7.40
2019-05-25T02:44:10.180Z,7.42
2019-05-25T02:45:10.182Z,7.43
2019-05-25T02:46:10.162Z,7.42
2019-05-25T02:47:10.144Z,7.42
2019-05-25T02:48:10.145Z,7.43
2019-05-25T02:49:10.137Z,7.39
2019-05-25T02:50:10.153Z,7.38
2019-05-25T02:51:10.136Z,7.35
2019-05-25T02:52:10.115Z,7.31
2019-05-25T02:53:10.102Z,7.29
2019-05-25T02:54:10.083Z,7.29
2019-05-25T02:55:10.084Z,7.31
2019-05-25T02:56:10.081Z,7.29
2019-05-25T02:57:10.040Z,7.28
2019-05-25T02:58:10.041Z,7.28
2019-05-25T02:59:10.031Z,7.28
2019-05-25T03:00:10.062Z,7.28
2019-05-25T03:01:10.043Z,7.28
2019-05-25T03:02:09.973Z,7.31
2019-05-25T03:03:09.994Z,7.29
2019-05-25T03:04:09.972Z,7.20
2019-05-25T03:05:09.945Z,7.13
2019-05-25T03:06:09.999Z,7.07
2019-05-25T03:07:09.961Z,7.07
2019-05-25T03:08:09.921Z,7.07
2019-05-25T03:09:09.919Z,7.07
2019-05-25T03:10:09.930Z,7.10
2019-05-25T03:11:09.940Z,7.11
2019-05-25T03:12:09.898Z,7.13
2019-05-25T03:13:09.870Z,7.11
2019-05-25T03:14:09.906Z,7.13
2019-05-25T03:15:09.851Z,7.15
2019-05-25T03:16:09.835Z,7.17
2019-05-25T03:17:09.828Z,7.17
2019-05-25T03:18:09.842Z,7.18
2019-05-25T03:19:09.833Z,7.23
2019-05-25T03:20:09.844Z,7.21
2019-05-25T03:21:09.786Z,7.20
2019-05-25T03:22:09.810Z,7.21
2019-05-25T03:23:09.808Z,7.23
2019-05-25T03:24:09.777Z,7.25
2019-05-25T03:25:09.737Z,7.28
2019-05-25T03:26:09.738Z,7.25
2019-05-25T03:27:09.745Z,7.24
2019-05-25T03:28:09.723Z,7.24
2019-05-25T03:29:09.704Z,7.25
2019-05-25T03:30:09.796Z,7.25
2019-05-25T03:31:09.736Z,7.21
2019-05-25T03:32:09.660Z,7.23
2019-05-25T03:33:09.668Z,7.20
2019-05-25T03:34:09.629Z,7.15
2019-05-25T03:35:09.645Z,7.17
2019-05-25T03:36:09.624Z,7.20
2019-05-25T03:37:09.716Z,7.20
2019-05-25T03:38:09.599Z,7.17
2019-05-25T03:39:09.578Z,7.15
2019-05-25T03:40:09.575Z,7.15
2019-05-25T03:41:11.446Z,7.20
2019-05-25T03:42:09.579Z,7.23
2019-05-25T03:43:09.579Z,7.24
2019-05-25T03:44:09.525Z,7.28
2019-05-25T03:45:10.686Z,7.29
2019-05-25T03:46:17.590Z,7.33
2019-05-25T03:47:09.750Z,7.36
2019-05-25T03:48:09.518Z,7.39
2019-05-25T03:49:09.507Z,7.43
2019-05-25T03:50:09.516Z,7.45
2019-05-25T03:51:09.501Z,7.50
2019-05-25T03:52:09.464Z,7.57
2019-05-25T03:53:09.439Z,7.61
2019-05-25T03:54:09.470Z,7.70
2019-05-25T03:55:09.460Z,7.80
2019-05-25T03:56:09.407Z,7.87
2019-05-25T03:57:09.407Z,7.91
2019-05-25T03:58:09.385Z,7.94
2019-05-25T03:59:09.417Z,8.00
2019-05-25T04:00:09.977Z,8.06
2019-05-25T04:01:09.516Z,8.12
2019-05-25T04:02:09.357Z,8.19
2019-05-25T04:03:09.409Z,8.26
2019-05-25T04:04:10.930Z,8.28
2019-05-25T04:05:11.661Z,8.37
2019-05-25T04:06:09.787Z,8.42
2019-05-25T04:07:09.353Z,8.49
2019-05-25T04:08:09.423Z,8.55
2019-05-25T04:09:09.669Z,8.61
2019-05-25T04:10:09.318Z,8.69
2019-05-25T04:11:09.943Z,8.78
2019-05-25T04:12:09.603Z,8.82
2019-05-25T04:13:09.236Z,8.89
2019-05-25T04:14:10.182Z,8.92
2019-05-25T04:15:09.732Z,8.97
2019-05-25T04:16:09.229Z,9.02
2019-05-25T04:17:09.283Z,9.06
2019-05-25T04:18:09.175Z,9.11
2019-05-25T04:19:09.215Z,9.16
2019-05-25T04:20:09.147Z,9.19
2019-05-25T04:21:09.183Z,9.22
2019-05-25T04:22:09.147Z,9.25
2019-05-25T04:23:09.144Z,9.28
2019-05-25T04:24:09.115Z,9.31
2019-05-25T04:25:09.221Z,9.36
2019-05-25T04:26:21.905Z,9.39
2019-05-25T04:27:10.861Z,9.41
2019-05-25T04:28:09.113Z,9.47
2019-05-25T04:29:09.680Z,9.48
2019-05-25T04:30:09.043Z,9.54
2019-05-25T04:31:09.080Z,9.56
2019-05-25T04:32:09.032Z,9.61
2019-05-25T04:33:09.011Z,9.65
2019-05-25T04:34:08.996Z,9.73
2019-05-25T04:35:09.005Z,9.79
2019-05-25T04:36:09.034Z,9.82
2019-05-25T04:37:08.955Z,9.86
2019-05-25T04:38:08.973Z,9.94
2019-05-25T04:39:08.930Z,9.98
2019-05-25T04:40:08.960Z,9.99
2019-05-25T04:41:08.961Z,10.01
2019-05-25T04:42:08.946Z,10.09
2019-05-25T04:43:08.904Z,10.09
2019-05-25T04:44:08.903Z,10.13
2019-05-25T04:45:08.899Z,10.16
2019-05-25T04:46:08.920Z,10.20
2019-05-25T04:47:08.912Z,10.26
2019-05-25T04:48:08.904Z,10.28
2019-05-25T04:49:08.913Z,10.28
2019-05-25T04:50:08.850Z,10.31
2019-05-25T04:51:08.836Z,10.33
2019-05-25T04:52:08.808Z,10.37
2019-05-25T04:53:08.830Z,10.40
2019-05-25T04:54:08.793Z,10.41
2019-05-25T04:55:08.817Z,10.46
2019-05-25T04:56:08.776Z,10.48
2019-05-25T04:57:08.890Z,10.53
2019-05-25T04:58:09.342Z,10.54
2019-05-25T04:59:08.731Z,10.57
2019-05-25T05:00:08.712Z,10.59
2019-05-25T05:01:08.708Z,10.61
2019-05-25T05:02:08.743Z,10.64
2019-05-25T05:03:08.710Z,10.68
2019-05-25T05:04:08.734Z,10.71
2019-05-25T05:05:08.696Z,10.72
2019-05-25T05:06:08.665Z,10.71
2019-05-25T05:07:08.640Z,10.74
2019-05-25T05:08:08.641Z,10.75
2019-05-25T05:09:08.629Z,10.74
2019-05-25T05:10:08.628Z,10.78
2019-05-25T05:11:08.589Z,10.78
2019-05-25T05:12:08.597Z,10.79
2019-05-25T05:13:08.583Z,10.82
2019-05-25T05:14:08.572Z,10.81
2019-05-25T05:15:08.567Z,10.81
2019-05-25T05:16:08.552Z,10.86
2019-05-25T05:17:08.563Z,10.82
2019-05-25T05:18:08.539Z,10.79
2019-05-25T05:19:08.537Z,10.79
2019-05-25T05:20:08.555Z,10.82
2019-05-25T05:21:08.507Z,10.82
2019-05-25T05:22:08.511Z,10.84
2019-05-25T05:23:08.500Z,10.84
2019-05-25T05:24:08.474Z,10.87
2019-05-25T05:25:09.492Z,10.87
2019-05-25T05:26:08.461Z,10.89
2019-05-25T05:27:08.510Z,10.92
2019-05-25T05:28:08.432Z,10.93
2019-05-25T05:29:08.400Z,10.92
2019-05-25T05:30:08.450Z,10.92
2019-05-25T05:31:22.674Z,10.93
2019-05-25T05:32:09.454Z,10.94
2019-05-25T05:33:08.433Z,10.96
2019-05-25T05:34:08.424Z,11.00
2019-05-25T05:35:08.470Z,11.04
2019-05-25T05:36:08.417Z,11.08
2019-05-25T05:37:08.383Z,11.10
2019-05-25T05:38:08.379Z,11.10
2019-05-25T05:39:08.297Z,11.11
2019-05-25T05:40:08.351Z,11.12
2019-05-25T05:41:08.315Z,11.10
2019-05-25T05:42:08.329Z,11.10
2019-05-25T05:43:08.266Z,11.08
2019-05-25T05:44:08.322Z,11.07
2019-05-25T05:45:08.294Z,11.07
2019-05-25T05:46:08.269Z,11.04
2019-05-25T05:47:10.472Z,11.02
2019-05-25T05:48:08.260Z,10.99
2019-05-25T05:49:08.268Z,10.99
2019-05-25T05:50:08.252Z,10.96
2019-05-25T05:51:08.222Z,10.96
2019-05-25T05:52:08.278Z,10.99
2019-05-25T05:53:08.241Z,11.00
2019-05-25T05:54:08.246Z,10.99
2019-05-25T05:55:08.148Z,11.02
2019-05-25T05:56:08.119Z,11.04
2019-05-25T05:57:12.241Z,11.05
2019-05-25T05:58:08.113Z,11.07
2019-05-25T05:59:08.107Z,11.05
2019-05-25T06:00:09.537Z,11.08
2019-05-25T06:01:08.115Z,11.11
2019-05-25T06:02:08.167Z,11.11
2019-05-25T06:03:16.590Z,11.10
2019-05-25T06:04:10.644Z,11.11
2019-05-25T06:05:16.619Z,11.11
2019-05-25T06:06:11.486Z,11.14
2019-05-25T06:07:11.088Z,11.18
2019-05-25T06:08:09.543Z,11.19
2019-05-25T06:09:08.372Z,11.25
2019-05-25T06:10:08.932Z,11.27
2019-05-25T06:11:07.955Z,11.27
2019-05-25T06:12:08.860Z,11.29
2019-05-25T06:13:07.958Z,11.30
2019-05-25T06:14:07.948Z,11.32
2019-05-25T06:15:07.947Z,11.32
2019-05-25T06:16:10.894Z,11.37
2019-05-25T06:17:07.990Z,11.44
2019-05-25T06:18:07.885Z,11.47
2019-05-25T06:19:07.906Z,11.48
2019-05-25T06:20:10.583Z,11.51
2019-05-25T06:21:09.868Z,11.55
2019-05-25T06:22:07.948Z,11.57
2019-05-25T06:23:12.191Z,11.57
2019-05-25T06:24:07.865Z,11.60
2019-05-25T06:25:07.855Z,11.60
2019-05-25T06:26:07.824Z,11.62
2019-05-25T06:27:07.796Z,11.57
2019-05-25T06:28:07.756Z,11.59
2019-05-25T06:29:07.805Z,11.55
2019-05-25T06:30:07.766Z,11.59
2019-05-25T06:31:08.820Z,11.60
2019-05-25T06:32:07.745Z,11.60
2019-05-25T06:33:07.757Z,11.55
2019-05-25T06:34:08.210Z,11.51
2019-05-25T06:35:13.123Z,11.52
2019-05-25T06:36:08.702Z,11.52
2019-05-25T06:37:07.681Z,11.55
2019-05-25T06:38:07.787Z,11.55
2019-05-25T06:39:07.687Z,11.54
2019-05-25T06:40:07.745Z,11.54
2019-05-25T06:41:08.785Z,11.54
2019-05-25T06:42:07.654Z,11.59
2019-05-25T06:43:07.739Z,11.60
2019-05-25T06:44:07.638Z,11.60
2019-05-25T06:45:07.594Z,11.62
2019-05-25T06:46:07.621Z,11.65
2019-05-25T06:47:07.551Z,11.69
2019-05-25T06:48:07.596Z,11.70
2019-05-25T06:49:11.240Z,11.70
2019-05-25T06:50:19.664Z,11.72
2019-05-25T06:51:07.600Z,11.68
2019-05-25T06:52:07.548Z,11.70
2019-05-25T06:53:07.529Z,11.73
2019-05-25T06:54:07.482Z,11.69
2019-05-25T06:55:07.514Z,11.70
2019-05-25T06:56:07.497Z,11.73
2019-05-25T06:57:07.483Z,11.73
2019-05-25T06:58:07.472Z,11.77
2019-05-25T06:59:07.482Z,11.81
2019-05-25T07:00:07.466Z,11.77
2019-05-25T07:01:07.465Z,11.80
2019-05-25T07:02:07.884Z,11.81
2019-05-25T07:03:07.410Z,11.81
2019-05-25T07:04:11.171Z,11.81
2019-05-25T07:05:08.047Z,11.80
2019-05-25T07:06:07.387Z,11.80
2019-05-25T07:07:07.334Z,11.81
2019-05-25T07:08:10.182Z,11.80
2019-05-25T07:09:07.327Z,11.81
2019-05-25T07:10:07.359Z,11.77
2019-05-25T07:11:07.316Z,11.73
2019-05-25T07:12:07.328Z,11.73
2019-05-25T07:13:07.275Z,11.73
2019-05-25T07:14:07.275Z,11.77
2019-05-25T07:15:07.311Z,11.75
2019-05-25T07:16:07.263Z,11.75
2019-05-25T07:17:07.257Z,11.78
2019-05-25T07:18:07.264Z,11.81
2019-05-25T07:19:07.212Z,11.87
2019-05-25T07:20:07.245Z,11.94
2019-05-25T07:21:07.223Z,11.97
2019-05-25T07:22:07.202Z,12.03
2019-05-25T07:23:07.210Z,12.04
2019-05-25T07:24:07.163Z,12.12
2019-05-25T07:25:07.168Z,12.21
2019-05-25T07:26:07.194Z,12.28
2019-05-25T07:27:07.123Z,12.35
2019-05-25T07:28:07.121Z,12.43
2019-05-25T07:29:07.121Z,12.54
2019-05-25T07:30:07.410Z,12.64
2019-05-25T07:31:07.094Z,12.78
2019-05-25T07:32:07.114Z,12.85
2019-05-25T07:33:07.093Z,12.93
2019-05-25T07:34:07.074Z,13.03
2019-05-25T07:35:07.052Z,13.16
2019-05-25T07:36:07.784Z,13.27
2019-05-25T07:37:07.043Z,13.39
2019-05-25T07:38:07.024Z,13.52
2019-05-25T07:39:07.009Z,13.63
2019-05-25T07:40:06.997Z,13.75
2019-05-25T07:41:07.042Z,13.87
2019-05-25T07:42:07.005Z,13.99
2019-05-25T07:43:06.958Z,13.78
2019-05-25T07:44:06.949Z,13.57
2019-05-25T07:45:06.984Z,13.46
2019-05-25T07:46:07.030Z,13.52
2019-05-25T07:47:06.919Z,13.54
2019-05-25T07:48:06.898Z,13.53
2019-05-25T07:49:07.002Z,13.65
2019-05-25T07:50:06.884Z,13.89
2019-05-25T07:51:06.843Z,14.00
2019-05-25T07:52:06.896Z,14.15
2019-05-25T07:53:06.845Z,14.30
2019-05-25T07:54:06.839Z,14.17
2019-05-25T07:55:06.834Z,14.22
2019-05-25T07:56:06.836Z,14.17
2019-05-25T07:57:06.793Z,14.17
2019-05-25T07:58:16.907Z,14.03
2019-05-25T07:59:07.790Z,14.07
2019-05-25T08:00:06.765Z,14.14
2019-05-25T08:01:06.764Z,14.08
2019-05-25T08:02:06.973Z,14.07
2019-05-25T08:03:06.742Z,14.29
2019-05-25T08:04:06.724Z,14.40
2019-05-25T08:05:06.726Z,14.44
2019-05-25T08:06:06.685Z,14.62
2019-05-25T08:07:06.724Z,14.82
2019-05-25T08:08:06.722Z,14.92
2019-05-25T08:09:06.682Z,15.07
2019-05-25T08:10:06.674Z,15.21
2019-05-25T08:11:06.651Z,15.43
2019-05-25T08:12:06.633Z,15.51
2019-05-25T08:13:06.649Z,15.40
2019-05-25T08:14:06.601Z,15.42
2019-05-25T08:15:06.641Z,15.64
2019-05-25T08:16:06.594Z,15.80
2019-05-25T08:17:06.614Z,15.70
2019-05-25T08:18:12.393Z,15.43
2019-05-25T08:19:06.992Z,15.79
2019-05-25T08:20:10.078Z,15.90
2019-05-25T08:21:08.567Z,16.08
2019-05-25T08:22:06.548Z,16.20
2019-05-25T08:23:06.583Z,16.17
2019-05-25T08:24:06.513Z,16.09
2019-05-25T08:25:06.508Z,16.53
2019-05-25T08:26:06.493Z,16.74
2019-05-25T08:27:07.883Z,16.86
2019-05-25T08:28:06.476Z,17.15
2019-05-25T08:29:06.457Z,16.76
2019-05-25T08:30:06.557Z,16.53
2019-05-25T08:31:06.792Z,16.51
2019-05-25T08:32:06.864Z,16.12
2019-05-25T08:33:06.536Z,16.97
2019-05-25T08:34:08.499Z,16.93
2019-05-25T08:35:09.566Z,17.08
2019-05-25T08:36:07.390Z,16.81
2019-05-25T08:37:06.926Z,16.41
2019-05-25T08:38:07.504Z,16.31
2019-05-25T08:39:15.140Z,16.72
2019-05-25T08:40:07.340Z,17.87
2019-05-25T08:41:09.613Z,17.64
2019-05-25T08:42:19.689Z,17.98
2019-05-25T08:43:11.778Z,17.29
2019-05-25T08:44:06.495Z,17.49
2019-05-25T08:45:07.248Z,17.34
2019-05-25T08:46:06.712Z,16.61
2019-05-25T08:47:07.382Z,16.46
2019-05-25T08:48:08.126Z,16.16
2019-05-25T08:49:06.429Z,16.15
2019-05-25T08:50:06.415Z,16.17
2019-05-25T08:51:06.426Z,16.65
2019-05-25T08:52:06.742Z,16.74
2019-05-25T08:53:06.802Z,16.60
2019-05-25T08:54:06.233Z,16.31
2019-05-25T08:55:07.069Z,16.21
2019-05-25T08:56:10.175Z,16.01
2019-05-25T08:57:06.344Z,17.29
2019-05-25T08:58:06.560Z,18.93
2019-05-25T08:59:06.151Z,20.13
2019-05-25T09:00:06.163Z,20.60
2019-05-25T09:01:06.132Z,21.00
2019-05-25T09:02:06.133Z,20.22
2019-05-25T09:03:06.280Z,20.81
2019-05-25T09:04:06.870Z,21.45
2019-05-25T09:05:06.469Z,22.00
2019-05-25T09:06:07.343Z,22.30
2019-05-25T09:07:08.367Z,22.68
2019-05-25T09:08:07.722Z,23.10
2019-05-25T09:09:06.133Z,24.02
2019-05-25T09:10:06.262Z,23.86
2019-05-25T09:11:07.634Z,24.02
2019-05-25T09:12:06.992Z,23.47
2019-05-25T09:13:06.057Z,21.98
2019-05-25T09:14:06.032Z,21.07
2019-05-25T09:15:06.469Z,20.48
2019-05-25T09:16:05.971Z,19.33
2019-05-25T09:17:06.196Z,18.43
2019-05-25T09:18:06.935Z,18.08
2019-05-25T09:19:06.183Z,17.68
2019-05-25T09:20:06.441Z,18.19
2019-05-25T09:21:06.932Z,17.90
2019-05-25T09:22:06.107Z,18.33
2019-05-25T09:23:05.949Z,19.47
2019-05-25T09:24:06.162Z,19.34
2019-05-25T09:25:07.002Z,19.71
2019-05-25T09:26:06.086Z,21.07
2019-05-25T09:27:06.100Z,20.28
2019-05-25T09:28:06.070Z,20.31
2019-05-25T09:29:06.378Z,21.32
2019-05-25T09:30:05.936Z,21.82
2019-05-25T09:31:06.754Z,21.09
2019-05-25T09:32:07.165Z,20.19
2019-05-25T09:33:06.520Z,20.77
2019-05-25T09:34:07.820Z,21.93
2019-05-25T09:35:08.535Z,22.53
2019-05-25T09:36:07.221Z,22.80
2019-05-25T09:37:05.927Z,21.21
2019-05-25T09:38:05.997Z,20.25
2019-05-25T09:39:05.940Z,19.33
2019-05-25T09:40:06.069Z,18.65
2019-05-25T09:41:06.526Z,18.45
2019-05-25T09:42:05.833Z,18.08
2019-05-25T09:43:05.914Z,17.90
2019-05-25T09:44:05.991Z,17.68
2019-05-25T09:45:05.854Z,17.51
2019-05-25T09:46:06.034Z,17.19
2019-05-25T09:47:05.893Z,17.23
2019-05-25T09:48:06.378Z,18.33
2019-05-25T09:49:05.872Z,19.70
2019-05-25T09:50:06.450Z,20.84
2019-05-25T09:51:15.094Z,21.55
2019-05-25T09:52:07.438Z,22.08
2019-05-25T09:53:05.621Z,22.04
2019-05-25T09:54:05.563Z,22.28
2019-05-25T09:55:05.620Z,21.12
2019-05-25T09:56:05.573Z,20.56
2019-05-25T09:57:05.730Z,21.39
2019-05-25T09:58:05.512Z,21.66
2019-05-25T09:59:19.250Z,22.33
2019-05-25T10:00:06.592Z,22.38
2019-05-25T10:01:05.520Z,22.96
2019-05-25T10:02:05.547Z,23.25
2019-05-25T10:03:05.532Z,23.73
2019-05-25T10:04:05.443Z,23.69
2019-05-25T10:05:05.574Z,23.71
2019-05-25T10:06:12.403Z,23.50
2019-05-25T10:07:06.559Z,23.58
2019-05-25T10:08:05.493Z,23.44
2019-05-25T10:09:05.493Z,23.84
2019-05-25T10:10:05.476Z,24.26
2019-05-25T10:11:05.561Z,23.88
2019-05-25T10:12:05.389Z,24.20
2019-05-25T10:13:05.428Z,24.36
2019-05-25T10:14:05.954Z,24.63
2019-05-25T10:15:06.148Z,24.92
2019-05-25T10:16:05.476Z,25.25
2019-05-25T10:17:05.346Z,24.81
2019-05-25T10:18:05.296Z,24.45
2019-05-25T10:19:05.334Z,24.89
2019-05-25T10:20:05.397Z,24.77
2019-05-25T10:21:05.275Z,23.13
2019-05-25T10:22:08.219Z,23.08
2019-05-25T10:23:05.292Z,22.90
2019-05-25T10:24:05.275Z,23.32
2019-05-25T10:25:05.295Z,23.46
2019-05-25T10:26:05.249Z,23.69
2019-05-25T10:27:05.243Z,23.24
2019-05-25T10:28:05.272Z,22.96
2019-05-25T10:29:05.211Z,22.84
2019-05-25T10:30:05.169Z,23.03
2019-05-25T10:31:05.184Z,23.17
2019-05-25T10:32:05.148Z,22.98
2019-05-25T10:33:05.149Z,22.93
2019-05-25T10:34:05.158Z,23.10
2019-05-25T10:35:05.129Z,22.91
2019-05-25T10:36:05.108Z,22.15
2019-05-25T10:37:05.128Z,21.72
2019-05-25T10:38:05.130Z,21.42
2019-05-25T10:39:05.098Z,21.42
2019-05-25T10:40:05.111Z,21.33
2019-05-25T10:41:05.071Z,21.62
2019-05-25T10:42:05.057Z,22.04
2019-05-25T10:43:05.104Z,21.33
2019-05-25T10:44:05.087Z,21.30
2019-05-25T10:45:05.035Z,21.73
2019-05-25T10:46:05.023Z,22.17
2019-05-25T10:47:04.998Z,21.80
2019-05-25T10:48:05.007Z,21.43
2019-05-25T10:49:05.023Z,21.67
2019-05-25T10:50:04.955Z,21.45
2019-05-25T10:51:04.981Z,21.07
2019-05-25T10:52:04.944Z,20.37
2019-05-25T10:53:04.933Z,20.07
2019-05-25T10:54:04.921Z,19.64
2019-05-25T10:55:04.938Z,19.41
2019-05-25T10:56:04.950Z,19.22
2019-05-25T10:57:04.909Z,19.12
2019-05-25T10:58:04.894Z,18.83
2019-05-25T10:59:04.870Z,18.73
2019-05-25T11:00:04.892Z,19.19
2019-05-25T11:01:04.888Z,19.63
2019-05-25T11:02:04.840Z,19.41
2019-05-25T11:03:04.837Z,19.27
2019-05-25T11:04:04.842Z,18.92
2019-05-25T11:05:04.812Z,18.83
2019-05-25T11:06:04.840Z,18.60
2019-05-25T11:07:04.789Z,18.53
2019-05-25T11:08:04.780Z,18.40
2019-05-25T11:09:04.800Z,18.40
2019-05-25T11:10:04.826Z,18.43
2019-05-25T11:11:04.790Z,18.38
2019-05-25T11:12:04.752Z,18.25
2019-05-25T11:13:04.749Z,18.28
2019-05-25T11:14:04.709Z,19.22
2019-05-25T11:15:04.827Z,19.12
2019-05-25T11:16:04.768Z,19.12
2019-05-25T11:17:04.707Z,19.04
2019-05-25T11:18:04.694Z,19.02
2019-05-25T11:19:04.672Z,20.03
2019-05-25T11:20:04.662Z,20.96
2019-05-25T11:21:04.670Z,21.80
2019-05-25T11:22:05.274Z,22.07
2019-05-25T11:23:04.622Z,22.73
2019-05-25T11:24:04.602Z,22.85
2019-05-25T11:25:04.634Z,23.48
2019-05-25T11:26:04.652Z,24.02
2019-05-25T11:27:04.632Z,23.02
2019-05-25T11:28:08.164Z,22.10
2019-05-25T11:29:04.574Z,22.02
2019-05-25T11:30:09.414Z,23.00
2019-05-25T11:31:04.696Z,23.48
2019-05-25T11:32:07.089Z,22.96
2019-05-25T11:33:05.400Z,22.59
2019-05-25T11:34:04.993Z,21.50
2019-05-25T11:35:04.518Z,20.14
2019-05-25T11:36:04.496Z,19.70
2019-05-25T11:37:04.524Z,19.45
2019-05-25T11:38:04.681Z,19.48
2019-05-25T11:39:04.809Z,19.47
2019-05-25T11:40:05.441Z,19.51
2019-05-25T11:41:04.433Z,19.70
2019-05-25T11:42:04.426Z,19.79
2019-05-25T11:43:04.488Z,19.64
2019-05-25T11:44:04.444Z,19.66
2019-05-25T11:45:04.445Z,20.32
2019-05-25T11:46:04.537Z,20.51
2019-05-25T11:47:04.416Z,20.44
2019-05-25T11:48:04.385Z,20.65
2019-05-25T11:49:20.011Z,20.63
2019-05-25T11:50:05.357Z,20.62
2019-05-25T11:51:04.312Z,20.47
2019-05-25T11:52:04.304Z,20.29
2019-05-25T11:53:05.918Z,20.18
2019-05-25T11:54:04.284Z,19.92
2019-05-25T11:55:04.313Z,19.77
2019-05-25T11:56:04.268Z,19.71
2019-05-25T11:57:04.257Z,20.06
2019-05-25T11:58:04.254Z,20.95
2019-05-25T11:59:04.246Z,20.59
2019-05-25T12:00:04.235Z,20.67
2019-05-25T12:01:04.289Z,20.63
2019-05-25T12:02:04.235Z,21.92
2019-05-25T12:03:04.207Z,22.45
2019-05-25T12:04:04.206Z,23.05
2019-05-25T12:05:04.168Z,23.27
2019-05-25T12:06:04.154Z,22.69
2019-05-25T12:07:04.199Z,22.28
2019-05-25T12:08:04.189Z,21.64
2019-05-25T12:09:04.131Z,21.22
2019-05-25T12:10:04.161Z,20.90
2019-05-25T12:11:04.133Z,21.96
2019-05-25T12:12:04.135Z,23.06
2019-05-25T12:13:04.173Z,23.93
2019-05-25T12:14:04.106Z,24.65
2019-05-25T12:15:04.107Z,24.92
2019-05-25T12:16:04.087Z,23.36
2019-05-25T12:17:04.101Z,22.47
2019-05-25T12:18:04.108Z,21.82
2019-05-25T12:19:04.035Z,22.96
2019-05-25T12:20:04.158Z,23.84
2019-05-25T12:21:04.017Z,23.83
2019-05-25T12:22:04.016Z,22.99
2019-05-25T12:23:04.370Z,23.02
2019-05-25T12:24:03.999Z,23.51
2019-05-25T12:25:04.005Z,24.39
2019-05-25T12:26:04.032Z,24.58
2019-05-25T12:27:04.029Z,24.63
2019-05-25T12:28:03.976Z,23.73
2019-05-25T12:29:03.974Z,22.48
2019-05-25T12:30:04.000Z,21.42
2019-05-25T12:31:03.948Z,20.90
2019-05-25T12:32:04.614Z,20.47
2019-05-25T12:33:03.916Z,20.34
2019-05-25T12:34:03.963Z,20.29
2019-05-25T12:35:03.882Z,20.18
2019-05-25T12:36:03.941Z,20.77
2019-05-25T12:37:03.902Z,20.95
2019-05-25T12:38:03.830Z,21.92
2019-05-25T12:39:03.847Z,22.73
2019-05-25T12:40:03.848Z,23.50
2019-05-25T12:41:03.857Z,24.60
2019-05-25T12:42:03.920Z,24.85
2019-05-25T12:43:03.860Z,23.68
2019-05-25T12:44:03.806Z,22.83
2019-05-25T12:45:03.854Z,22.11
2019-05-25T12:46:03.824Z,21.37
2019-05-25T12:47:03.783Z,20.95
2019-05-25T12:48:03.762Z,21.17
2019-05-25T12:49:03.814Z,22.45
2019-05-25T12:50:03.738Z,22.80
2019-05-25T12:51:03.734Z,22.07
2019-05-25T12:52:03.704Z,22.70
2019-05-25T12:53:03.783Z,23.55
2019-05-25T12:54:03.719Z,23.58
2019-05-25T12:55:03.721Z,24.05
2019-05-25T12:56:03.656Z,24.80
2019-05-25T12:57:03.659Z,24.14
2019-05-25T12:58:03.743Z,23.20
2019-05-25T12:59:03.615Z,22.36
2019-05-25T13:00:15.081Z,21.89
2019-05-25T13:01:04.640Z,21.42